Time;durP1;ratioP1;P1;durP2;ratioP2;P2;SDS_P1;SDS_P2;PMS_P1;PMS_P2;Temp;Humidity;BMP_temperature;BMP_pressure;BME280_temperature;BME280_humidity;BME280_pressure;Samples;Min_cycle;Max_cycle;Signal;HPM_P1;HPM_P2
2021/03/29 00:00:24;;;;;;;8.85;4.38;;;;;;;10.60;100.00;102617.53;5016274;28;20550;-74
2021/03/29 00:03:10;;;;;;;11.70;5.55;;;;;;;10.22;100.00;102617.91;5015424;28;20091;-74
2021/03/29 00:05:56;;;;;;;13.40;6.47;;;;;;;10.45;100.00;102624.34;5001728;28;20021;-74
2021/03/29 00:08:43;;;;;;;8.88;4.63;;;;;;;10.63;100.00;102617.59;5015939;28;20041;-75
2021/03/29 00:11:30;;;;;;;7.70;3.50;;;;;;;10.62;100.00;102622.81;5016230;28;20488;-73
2021/03/29 00:14:16;;;;;;;5.55;3.70;;;;;;;10.54;100.00;102624.47;5016028;28;20137;-74
2021/03/29 00:17:03;;;;;;;7.95;3.60;;;;;;;10.53;100.00;102626.19;5001447;28;20178;-74
2021/03/29 00:19:50;;;;;;;4.38;3.65;;;;;;;10.27;100.00;102624.06;5015842;28;20029;-74
2021/03/29 00:22:36;;;;;;;4.45;3.60;;;;;;;10.18;100.00;102623.94;5015863;28;20030;-74
2021/03/29 00:25:24;;;;;;;10.05;3.83;;;;;;;10.63;100.00;102630.69;5015067;28;20026;-73
2021/03/29 00:28:10;;;;;;;4.22;3.35;;;;;;;10.29;100.00;102628.47;5015171;28;20032;-75
2021/03/29 00:30:57;;;;;;;5.55;3.97;;;;;;;10.54;100.00;102625.34;5014941;28;20032;-73
2021/03/29 00:33:44;;;;;;;8.50;4.25;;;;;;;10.59;100.00;102628.00;5015217;28;20026;-73
2021/03/29 00:36:31;;;;;;;6.65;3.95;;;;;;;10.15;100.00;102630.03;5015197;28;20406;-73
2021/03/29 00:39:19;;;;;;;4.25;3.53;;;;;;;10.57;100.00;102624.50;5015391;28;20026;-72
2021/03/29 00:42:06;;;;;;;7.38;4.50;;;;;;;10.32;100.00;102627.66;5015172;28;20398;-73
2021/03/29 00:44:51;;;;;;;6.97;4.72;;;;;;;10.38;100.00;102630.34;5015202;28;20105;-73
2021/03/29 00:47:38;;;;;;;6.00;4.28;;;;;;;10.21;100.00;102629.25;5014933;28;20036;-73
2021/03/29 00:50:37;;;;;;;7.00;4.50;;;;;;;10.64;100.00;102621.97;5000710;28;20026;-73
2021/03/29 00:53:24;;;;;;;30.83;17.08;;;;;;;10.29;100.00;102633.72;5015708;28;20205;-74
2021/03/29 00:56:10;;;;;;;9.00;5.88;;;;;;;10.48;100.00;102633.13;5014913;28;20101;-74
2021/03/29 00:58:57;;;;;;;14.07;7.32;;;;;;;10.56;100.00;102634.09;5000582;28;20113;-73
2021/03/29 01:01:48;;;;;;;23.38;9.55;;;;;;;10.46;100.00;102631.34;5015092;28;20129;-73
2021/03/29 01:04:34;;;;;;;11.68;7.00;;;;;;;10.47;100.00;102644.47;5014413;28;20034;-74
2021/03/29 01:07:21;;;;;;;11.80;5.18;;;;;;;10.71;100.00;102634.31;5014875;28;20470;-74
2021/03/29 01:10:07;;;;;;;8.32;5.15;;;;;;;10.55;100.00;102642.81;5014594;28;20065;-73
2021/03/29 01:12:59;;;;;;;11.45;6.57;;;;;;;10.70;100.00;102637.78;5014768;28;20141;-74
2021/03/29 01:15:48;;;;;;;10.02;5.63;;;;;;;10.42;100.00;102648.78;4999922;28;20033;-73
2021/03/29 01:18:39;;;;;;;10.60;5.28;;;;;;;10.56;100.00;102644.59;5015428;28;20026;-74
2021/03/29 01:21:37;;;;;;;7.82;4.60;;;;;;;10.62;100.00;102652.53;4999917;28;20045;-74
2021/03/29 01:24:35;;;;;;;8.80;5.20;;;;;;;10.63;100.00;102651.66;5015235;28;20041;-73
2021/03/29 01:27:28;;;;;;;10.07;6.18;;;;;;;10.40;100.00;102660.09;5014219;28;20483;-73
2021/03/29 01:30:15;;;;;;;7.22;4.50;;;;;;;10.57;100.00;102650.72;5015306;28;20083;-74
2021/03/29 01:33:03;;;;;;;8.93;4.38;;;;;;;10.57;100.00;102648.97;5014442;28;20474;-75
2021/03/29 01:35:58;;;;;;;9.68;4.88;;;;;;;10.61;100.00;102658.63;5015154;28;20025;-74
2021/03/29 01:38:45;;;;;;;15.50;7.53;;;;;;;10.78;100.00;102641.38;5015227;28;20033;-74
2021/03/29 01:41:32;;;;;;;7.30;4.70;;;;;;;10.35;100.00;102644.28;4999424;28;20030;-73
2021/03/29 01:44:19;;;;;;;10.10;4.60;;;;;;;10.56;100.00;102643.72;5015010;28;20099;-75
2021/03/29 01:47:07;;;;;;;8.10;4.40;;;;;;;10.56;100.00;102646.34;5014281;28;20025;-74
2021/03/29 01:49:54;;;;;;;5.57;4.40;;;;;;;10.43;100.00;102647.00;5014626;28;20084;-74
2021/03/29 01:52:39;;;;;;;7.45;4.32;;;;;;;10.10;100.00;102645.66;5014719;28;20057;-74
2021/03/29 01:55:28;;;;;;;6.75;4.63;;;;;;;10.32;100.00;102644.25;5013611;28;20034;-74
2021/03/29 01:58:14;;;;;;;6.32;5.20;;;;;;;10.28;100.00;102641.56;5013849;28;20109;-74
2021/03/29 02:01:05;;;;;;;8.25;4.80;;;;;;;10.22;100.00;102652.84;5013361;28;20033;-74
2021/03/29 02:03:52;;;;;;;8.82;5.18;;;;;;;10.09;100.00;102645.66;4999562;28;20095;-73
2021/03/29 02:06:38;;;;;;;8.60;5.28;;;;;;;10.45;100.00;102648.78;5014096;28;20447;-73
2021/03/29 02:09:25;;;;;;;8.23;6.30;;;;;;;10.64;100.00;102648.19;5014733;28;20046;-75
2021/03/29 02:12:12;;;;;;;10.85;7.43;;;;;;;10.63;100.00;102656.91;5014751;28;20038;-75
2021/03/29 02:14:58;;;;;;;12.63;8.27;;;;;;;10.77;100.00;102644.84;4999595;28;20485;-74
2021/03/29 02:17:45;;;;;;;14.05;8.48;;;;;;;10.64;100.00;102656.03;5013826;28;20096;-73
2021/03/29 02:20:34;;;;;;;10.07;5.72;;;;;;;10.32;100.00;102649.47;5013243;28;20036;-74
2021/03/29 02:23:21;;;;;;;7.43;5.55;;;;;;;10.53;100.00;102652.41;4998827;28;20030;-74
2021/03/29 02:26:08;;;;;;;7.47;5.47;;;;;;;10.59;100.00;102655.13;5013178;28;20540;-75
2021/03/29 02:28:55;;;;;;;8.05;5.75;;;;;;;10.63;99.72;102658.66;4998745;28;20116;-74
2021/03/29 02:31:41;;;;;;;7.13;5.45;;;;;;;10.45;99.49;102650.53;5014325;28;20057;-74
2021/03/29 02:34:27;;;;;;;8.57;5.20;;;;;;;10.48;99.40;102650.59;5013276;28;20038;-74
2021/03/29 02:37:13;;;;;;;8.48;6.10;;;;;;;10.53;98.97;102649.78;5013568;28;20030;-74
2021/03/29 02:39:59;;;;;;;7.95;5.40;;;;;;;10.25;97.74;102647.66;5013851;28;20342;-76
2021/03/29 02:42:46;;;;;;;7.90;4.93;;;;;;;10.51;97.70;102654.13;4999233;28;20092;-75
2021/03/29 02:45:40;;;;;;;11.73;6.15;;;;;;;10.50;98.46;102651.47;5013992;28;20116;-74
2021/03/29 02:48:29;;;;;;;8.00;5.53;;;;;;;10.42;97.89;102651.38;5014262;28;20145;-74
2021/03/29 02:51:17;;;;;;;9.45;6.03;;;;;;;10.67;96.99;102650.84;5013020;28;20192;-75
2021/03/29 02:54:06;;;;;;;8.63;5.97;;;;;;;10.21;100.00;102645.84;5013214;28;20359;-75
2021/03/29 02:56:55;;;;;;;9.77;5.90;;;;;;;10.16;100.00;102647.50;5012978;28;20049;-75
2021/03/29 02:59:42;;;;;;;10.55;6.85;;;;;;;10.70;99.21;102650.00;5013168;28;20030;-74
2021/03/29 03:02:28;;;;;;;7.57;6.10;;;;;;;10.09;100.00;102646.53;5013496;28;20422;-75
2021/03/29 03:05:15;;;;;;;9.20;5.32;;;;;;;10.17;100.00;102646.66;5013381;28;20052;-75
2021/03/29 03:08:01;;;;;;;7.53;5.40;;;;;;;10.01;100.00;102636.78;5013018;28;20084;-75
2021/03/29 03:10:48;;;;;;;7.32;5.20;;;;;;;9.92;100.00;102636.63;5013562;28;20029;-74
2021/03/29 03:13:35;;;;;;;10.23;5.78;;;;;;;10.15;100.00;102643.13;5012797;28;20040;-74
2021/03/29 03:16:22;;;;;;;8.05;5.03;;;;;;;10.00;100.00;102645.47;4986648;28;20034;-75
2021/03/29 03:19:08;;;;;;;7.03;5.28;;;;;;;10.01;100.00;102639.41;5013121;28;20030;-74
2021/03/29 03:21:54;;;;;;;9.00;5.43;;;;;;;9.60;100.00;102643.06;5013389;28;20518;-74
2021/03/29 03:24:40;;;;;;;8.48;5.70;;;;;;;10.03;100.00;102641.19;5013449;28;20080;-75
2021/03/29 03:27:26;;;;;;;7.70;5.03;;;;;;;10.03;98.90;102637.66;5013602;28;20108;-73
2021/03/29 03:30:32;;;;;;;8.75;5.40;;;;;;;9.89;99.65;102637.44;5012855;28;20033;-75
2021/03/29 03:33:21;;;;;;;6.47;5.43;;;;;;;9.54;99.38;102636.00;5014385;28;20029;-75
2021/03/29 03:36:07;;;;;;;7.13;5.35;;;;;;;9.78;98.41;102630.28;5013331;28;20025;-74
2021/03/29 03:38:54;;;;;;;9.60;5.03;;;;;;;9.76;99.03;102635.50;5014883;28;20040;-76
2021/03/29 03:41:41;;;;;;;6.43;5.18;;;;;;;9.92;98.49;102637.50;5016704;28;20030;-75
2021/03/29 03:44:29;;;;;;;7.60;5.53;;;;;;;9.86;97.84;102642.63;5016651;28;20084;-75
2021/03/29 03:47:15;;;;;;;8.23;5.38;;;;;;;9.65;99.08;102650.13;5017127;28;20026;-74
2021/03/29 03:50:02;;;;;;;9.45;5.90;;;;;;;9.63;97.95;102659.72;5002861;28;20096;-74
2021/03/29 03:52:49;;;;;;;10.35;6.18;;;;;;;9.93;98.26;102652.34;5015769;28;20133;-74
2021/03/29 03:55:36;;;;;;;8.20;6.30;;;;;;;9.95;99.60;102652.38;5015626;28;20025;-74
2021/03/29 03:58:23;;;;;;;7.38;5.78;;;;;;;9.35;100.00;102654.84;5017068;28;20108;-74
2021/03/29 04:01:09;;;;;;;8.13;6.18;;;;;;;9.46;100.00;102661.16;5015463;28;20030;-73
2021/03/29 04:03:55;;;;;;;10.68;6.63;;;;;;;9.82;100.00;102668.75;5016619;28;20026;-74
2021/03/29 04:06:41;;;;;;;11.30;6.90;;;;;;;9.87;100.00;102660.13;5016768;28;20052;-75
2021/03/29 04:09:47;;;;;;;12.13;7.25;;;;;;;9.64;100.00;102661.47;5003171;28;20423;-74
2021/03/29 04:12:34;;;;;;;11.98;7.03;;;;;;;10.01;100.00;102658.59;5015998;28;20025;-75
2021/03/29 04:15:21;;;;;;;10.25;7.38;;;;;;;10.39;97.26;102661.81;5002173;28;20026;-75
2021/03/29 04:18:06;;;;;;;14.38;7.20;;;;;;;9.76;97.64;102661.69;5001670;28;20347;-74
2021/03/29 04:20:54;;;;;;;10.50;7.05;;;;;;;9.99;93.75;102664.66;5015303;28;20164;-75
2021/03/29 04:23:40;;;;;;;14.85;6.78;;;;;;;9.74;92.94;102660.75;5016799;28;20080;-73
2021/03/29 04:26:26;;;;;;;13.77;7.10;;;;;;;9.70;91.45;102665.94;5016060;28;20128;-74
2021/03/29 04:29:12;;;;;;;11.77;6.97;;;;;;;10.32;88.81;102665.22;5015717;28;20496;-75
2021/03/29 04:31:58;;;;;;;11.95;7.03;;;;;;;10.40;88.14;102667.97;5001129;28;20038;-75
2021/03/29 04:34:44;;;;;;;10.18;6.47;;;;;;;10.00;87.67;102671.66;5001488;28;20093;-75
2021/03/29 04:37:29;;;;;;;12.55;6.57;;;;;;;10.17;84.80;102667.63;5016286;28;20454;-74
2021/03/29 04:40:16;;;;;;;10.65;6.32;;;;;;;10.32;84.76;102664.34;5016354;28;20037;-75
2021/03/29 04:43:02;;;;;;;9.68;6.80;;;;;;;10.05;83.80;102673.53;5015306;28;20026;-75
2021/03/29 04:45:48;;;;;;;11.50;6.10;;;;;;;10.13;84.24;102670.16;5015377;28;20447;-74
2021/03/29 04:48:34;;;;;;;10.80;6.80;;;;;;;10.09;83.75;102674.47;5015186;28;20038;-75
2021/03/29 04:51:20;;;;;;;13.20;7.90;;;;;;;10.28;82.03;102673.88;5014029;28;20054;-75
2021/03/29 04:54:06;;;;;;;10.57;7.63;;;;;;;10.27;80.61;102674.75;5015593;28;20053;-75
2021/03/29 04:56:51;;;;;;;11.30;6.95;;;;;;;10.62;79.45;102675.25;5014729;28;20358;-75
2021/03/29 04:59:37;;;;;;;13.60;7.10;;;;;;;10.56;78.49;102673.41;5016065;28;20428;-72
2021/03/29 05:02:23;;;;;;;10.88;6.78;;;;;;;10.57;78.91;102674.31;5014808;28;20138;-73
2021/03/29 05:05:09;;;;;;;11.10;6.82;;;;;;;10.21;77.73;102673.78;5015124;28;20049;-72
2021/03/29 05:07:55;;;;;;;10.32;6.60;;;;;;;10.27;78.20;102672.13;5015707;28;20030;-75
2021/03/29 05:10:42;;;;;;;12.80;6.72;;;;;;;10.57;76.56;102667.31;5015553;28;20057;-75
2021/03/29 05:13:27;;;;;;;9.57;7.00;;;;;;;10.72;76.15;102658.78;5014855;28;20022;-74
2021/03/29 05:16:13;;;;;;;15.18;7.28;;;;;;;10.65;77.17;102665.66;5015716;28;20138;-75
2021/03/29 05:18:59;;;;;;;14.80;7.93;;;;;;;10.44;77.07;102675.00;5015378;28;20026;-74
2021/03/29 05:21:44;;;;;;;10.98;7.30;;;;;;;10.22;76.45;102671.19;5015048;28;20032;-75
2021/03/29 05:24:31;;;;;;;11.65;7.40;;;;;;;10.76;75.88;102671.94;5014663;28;20113;-73
2021/03/29 05:27:16;;;;;;;12.55;6.80;;;;;;;10.57;76.69;102669.91;5014702;28;20033;-74
2021/03/29 05:30:03;;;;;;;12.85;7.63;;;;;;;10.89;75.88;102662.50;5015474;28;20079;-74
2021/03/29 05:32:49;;;;;;;12.98;6.72;;;;;;;10.79;75.84;102658.88;5014102;28;20021;-75
2021/03/29 05:35:35;;;;;;;12.10;7.13;;;;;;;10.94;76.37;102658.19;5015376;28;20354;-75
2021/03/29 05:38:20;;;;;;;11.38;7.32;;;;;;;10.93;76.36;102666.91;5015259;28;20026;-72
2021/03/29 05:41:08;;;;;;;9.05;6.15;;;;;;;10.70;75.54;102668.34;5000133;28;20030;-75
2021/03/29 05:43:54;;;;;;;9.45;6.85;;;;;;;11.35;74.57;102668.28;5014415;28;20025;-73
2021/03/29 05:46:43;;;;;;;9.77;6.80;;;;;;;11.08;74.30;102661.81;5014674;28;20160;-75
2021/03/29 05:49:31;;;;;;;10.90;6.63;;;;;;;11.40;74.32;102657.81;5014376;28;20022;-73
2021/03/29 05:52:16;;;;;;;13.70;7.40;;;;;;;10.88;74.53;102668.59;5014110;28;20064;-74
2021/03/29 05:55:05;;;;;;;11.95;7.40;;;;;;;10.91;75.18;102669.50;5014706;28;20044;-74
2021/03/29 06:00:44;;;;;;;11.35;6.82;;;;;;;11.11;74.35;102660.13;5013513;28;20360;-74
2021/03/29 06:03:31;;;;;;;11.40;6.47;;;;;;;11.32;74.54;102659.47;5013589;28;20113;-73
2021/03/29 06:06:20;;;;;;;10.40;5.90;;;;;;;11.28;74.80;102655.94;5014982;28;20046;-73
2021/03/29 06:09:07;;;;;;;11.10;5.93;;;;;;;11.02;74.97;102667.00;5014863;28;20036;-72
2021/03/29 06:11:53;;;;;;;9.32;5.43;;;;;;;11.40;74.36;102665.69;5000201;28;20103;-75
2021/03/29 06:14:40;;;;;;;8.52;5.45;;;;;;;11.84;73.96;102665.25;4999287;28;20034;-74
2021/03/29 06:17:26;;;;;;;8.75;5.70;;;;;;;11.68;73.11;102660.75;5013591;28;20087;-74
2021/03/29 06:20:12;;;;;;;10.43;4.85;;;;;;;11.41;73.04;102663.06;5013756;28;20026;-75
2021/03/29 06:23:10;;;;;;;7.40;4.78;;;;;;;11.63;72.84;102666.81;5013815;28;20059;-74
2021/03/29 06:26:30;;;;;;;9.25;5.25;;;;;;;11.52;75.13;102671.03;5013737;28;20545;-74
2021/03/29 06:29:19;;;;;;;10.43;6.63;;;;;;;12.07;71.69;102668.97;5013095;28;20053;-74
2021/03/29 06:32:05;;;;;;;9.13;6.18;;;;;;;12.07;71.42;102673.31;5013448;28;20014;-72
2021/03/29 06:34:52;;;;;;;6.95;5.50;;;;;;;11.81;72.18;102670.47;5013856;28;20154;-75
2021/03/29 06:37:38;;;;;;;7.82;5.00;;;;;;;12.31;70.38;102671.75;5014476;28;20454;-74
2021/03/29 06:40:25;;;;;;;9.25;5.07;;;;;;;12.56;69.41;102673.66;5014676;28;20034;-76
2021/03/29 06:43:29;;;;;;;9.75;5.40;;;;;;;12.52;68.93;102679.78;5013067;28;20156;-72
2021/03/29 06:46:24;;;;;;;6.65;5.13;;;;;;;12.30;69.18;102663.88;4999532;28;20033;-75
2021/03/29 06:49:10;;;;;;;12.48;5.80;;;;;;;12.68;67.84;102668.47;5013052;28;20034;-74
2021/03/29 06:51:56;;;;;;;8.68;5.22;;;;;;;12.63;67.74;102674.56;5013819;28;20383;-76
2021/03/29 06:54:41;;;;;;;8.75;5.53;;;;;;;12.19;68.12;102669.06;5013692;28;20378;-75
2021/03/29 06:57:34;;;;;;;11.50;5.78;;;;;;;12.70;67.36;102669.34;5014512;28;20033;-74
2021/03/29 07:00:28;;;;;;;9.73;5.50;;;;;;;13.14;67.24;102674.84;5013674;28;20034;-75
2021/03/29 07:03:15;;;;;;;16.13;6.00;;;;;;;12.97;67.35;102677.38;5012848;28;20401;-76
2021/03/29 07:06:01;;;;;;;9.48;5.10;;;;;;;12.71;67.27;102676.38;5013681;28;20038;-73
2021/03/29 07:08:47;;;;;;;10.70;5.82;;;;;;;13.22;66.93;102673.97;5013159;28;20053;-75
2021/03/29 07:11:35;;;;;;;9.50;5.78;;;;;;;13.46;67.15;102676.66;5012800;28;20026;-74
2021/03/29 07:14:21;;;;;;;11.65;5.53;;;;;;;13.90;66.89;102682.84;5016661;28;20042;-74
2021/03/29 07:17:08;;;;;;;10.40;5.45;;;;;;;13.65;67.96;102678.44;5017083;28;20060;-75
2021/03/29 07:19:55;;;;;;;6.35;4.40;;;;;;;13.62;67.88;102674.91;5017270;28;20022;-73
2021/03/29 07:22:48;;;;;;;5.72;3.95;;;;;;;13.64;67.16;102676.69;5016812;28;20057;-76
2021/03/29 07:25:40;;;;;;;4.63;4.10;;;;;;;13.44;66.75;102678.41;5016651;28;20037;-75
2021/03/29 07:28:30;;;;;;;7.80;4.28;;;;;;;13.84;63.96;102679.34;5017175;28;20030;-75
2021/03/29 07:31:36;;;;;;;9.88;4.38;;;;;;;13.93;61.29;102685.50;5016483;28;20552;-74
2021/03/29 07:34:54;;;;;;;6.70;4.32;;;;;;;13.85;59.20;102679.34;5016835;28;20033;-73
2021/03/29 07:37:44;;;;;;;4.47;3.65;;;;;;;14.18;60.33;102681.06;4984917;28;20025;-74
2021/03/29 07:40:32;;;;;;;9.93;4.63;;;;;;;14.10;61.58;102678.44;5003002;28;20034;-73
2021/03/29 07:43:20;;;;;;;10.85;5.20;;;;;;;14.52;60.99;102677.53;5017050;28;20169;-75
2021/03/29 07:46:07;;;;;;;6.40;3.63;;;;;;;14.56;60.01;102681.94;5002612;28;20026;-74
2021/03/29 07:48:52;;;;;;;5.57;3.92;;;;;;;14.56;59.18;102674.88;5017111;28;20030;-74
2021/03/29 07:51:38;;;;;;;9.30;4.63;;;;;;;14.25;59.03;102678.47;5001932;28;20062;-75
2021/03/29 07:54:49;;;;;;;10.45;6.80;;;;;;;14.68;58.61;102673.97;5001890;28;20018;-75
2021/03/29 07:57:43;;;;;;;6.82;4.40;;;;;;;14.79;57.23;102673.03;5016374;28;20118;-74
2021/03/29 08:00:30;;;;;;;8.02;4.40;;;;;;;14.74;56.49;102671.28;5017011;28;20109;-75
2021/03/29 08:03:15;;;;;;;9.45;5.22;;;;;;;14.77;57.67;102680.09;5016305;28;20096;-73
2021/03/29 08:06:01;;;;;;;7.25;4.50;;;;;;;15.05;56.78;102674.69;5017616;28;20399;-74
2021/03/29 08:08:53;;;;;;;4.82;3.40;;;;;;;15.56;55.12;102671.78;5016884;28;20366;-75
2021/03/29 08:12:05;;;;;;;6.57;3.22;;;;;;;15.47;53.27;102669.22;5003092;28;20026;-73
2021/03/29 08:14:54;;;;;;;5.18;3.72;;;;;;;15.50;54.09;102669.16;5002045;28;20100;-75
2021/03/29 08:17:51;;;;;;;6.78;4.07;;;;;;;16.42;52.09;102670.19;5002271;28;20028;-74
2021/03/29 08:20:44;;;;;;;5.70;3.80;;;;;;;16.13;51.94;102663.38;5016813;28;20069;-74
2021/03/29 08:23:38;;;;;;;5.57;4.07;;;;;;;16.89;49.96;102665.22;5001855;28;20041;-74
2021/03/29 08:26:36;;;;;;;6.43;3.70;;;;;;;16.66;49.04;102664.63;5002987;28;20204;-73
2021/03/29 08:29:30;;;;;;;10.15;3.70;;;;;;;16.19;49.93;102661.56;5001381;28;20337;-72
2021/03/29 08:32:17;;;;;;;4.30;3.50;;;;;;;16.53;50.19;102652.41;5015084;28;20045;-73
2021/03/29 08:35:08;;;;;;;5.70;4.07;;;;;;;16.87;48.38;102650.22;4988184;28;20110;-73
2021/03/29 08:37:54;;;;;;;5.55;3.63;;;;;;;16.55;48.86;102649.75;5014856;28;20129;-73
2021/03/29 08:40:40;;;;;;;11.07;5.50;;;;;;;17.37;47.75;102655.72;5000566;28;20033;-74
2021/03/29 08:43:25;;;;;;;5.95;3.58;;;;;;;17.19;47.04;102648.03;5015357;28;20038;-72
2021/03/29 08:46:12;;;;;;;4.13;3.28;;;;;;;16.52;47.20;102652.44;5017503;28;20057;-72
2021/03/29 08:48:58;;;;;;;5.63;3.42;;;;;;;17.41;46.35;102650.38;5015082;28;20043;-73
2021/03/29 08:51:44;;;;;;;6.45;3.88;;;;;;;17.63;45.22;102649.16;5015372;28;20041;-73
2021/03/29 08:54:30;;;;;;;8.52;3.90;;;;;;;18.11;44.44;102647.47;5001270;28;20026;-72
2021/03/29 08:57:16;;;;;;;5.15;4.00;;;;;;;17.74;44.43;102641.91;5015023;28;20424;-72
2021/03/29 09:00:11;;;;;;;7.78;5.60;;;;;;;18.76;42.24;102644.44;5014665;28;20455;-72
2021/03/29 09:02:57;;;;;;;5.45;3.67;;;;;;;17.92;42.28;102646.06;5000603;28;20120;-72
2021/03/29 09:05:43;;;;;;;4.68;3.33;;;;;;;17.47;42.91;102641.47;5015209;28;20026;-72
2021/03/29 09:08:29;;;;;;;4.05;3.28;;;;;;;17.65;43.16;102641.19;5000724;28;20026;-71
2021/03/29 09:11:15;;;;;;;7.50;3.38;;;;;;;16.70;43.45;102644.28;5015347;28;20143;-72
2021/03/29 09:14:01;;;;;;;8.57;3.42;;;;;;;17.48;43.76;102637.94;5014960;28;20022;-73
2021/03/29 09:17:00;;;;;;;4.82;3.55;;;;;;;17.31;42.98;102634.59;5000530;28;20029;-73
2021/03/29 09:19:46;;;;;;;6.25;4.25;;;;;;;17.12;43.66;102631.34;5014155;28;20114;-73
2021/03/29 09:22:35;;;;;;;7.07;3.97;;;;;;;17.12;46.24;102630.50;5014877;28;20029;-72
2021/03/29 09:25:38;;;;;;;4.53;3.75;;;;;;;16.83;46.19;102622.03;5014317;28;20057;-72
2021/03/29 09:31:24;;;;;;;5.75;3.90;;;;;;;17.05;46.07;102619.09;5013897;28;20358;-72
2021/03/29 09:34:13;;;;;;;5.18;3.80;;;;;;;17.36;47.22;102619.53;5015541;28;20026;-72
2021/03/29 09:36:59;;;;;;;4.63;4.10;;;;;;;16.89;47.65;102617.56;4999871;28;20026;-73
2021/03/29 09:39:45;;;;;;;5.65;3.90;;;;;;;17.48;45.90;102619.38;5000001;28;20061;-73
2021/03/29 09:42:44;;;;;;;5.15;4.03;;;;;;;16.97;46.91;102618.34;5015068;28;20061;-75
2021/03/29 09:45:33;;;;;;;8.02;4.03;;;;;;;16.90;47.26;102613.13;5000207;28;20026;-74
2021/03/29 09:48:18;;;;;;;6.57;4.13;;;;;;;17.35;46.66;102607.16;5014112;28;20516;-75
2021/03/29 09:51:25;;;;;;;7.70;3.88;;;;;;;17.06;46.79;102601.41;5013722;28;20046;-74
2021/03/29 09:54:28;;;;;;;7.15;5.10;;;;;;;17.25;50.93;102590.56;5001593;28;20045;-74
2021/03/29 09:57:15;;;;;;;6.72;5.47;;;;;;;17.43;53.72;102600.88;4999971;28;20041;-74
2021/03/29 10:00:16;;;;;;;9.30;6.10;;;;;;;17.16;55.80;102592.47;4999431;28;20026;-74
2021/03/29 10:03:05;;;;;;;7.60;5.65;;;;;;;17.26;53.90;102594.06;5014009;28;20041;-74
2021/03/29 10:05:57;;;;;;;9.60;5.60;;;;;;;17.01;53.67;102595.31;4999580;28;20359;-74
2021/03/29 10:09:04;;;;;;;7.80;5.60;;;;;;;16.67;55.05;102580.78;5015084;28;20061;-74
2021/03/29 10:11:49;;;;;;;9.95;5.78;;;;;;;17.42;53.85;102590.31;5014649;28;20026;-74
2021/03/29 10:14:38;;;;;;;12.07;5.93;;;;;;;18.01;53.47;102582.22;5014100;28;20030;-74
2021/03/29 10:17:26;;;;;;;8.68;5.22;;;;;;;18.35;51.01;102578.03;5013128;28;20037;-74
2021/03/29 10:20:17;;;;;;;11.63;5.50;;;;;;;18.42;49.89;102577.00;4999024;28;20029;-74
2021/03/29 10:23:26;;;;;;;8.43;5.00;;;;;;;18.52;49.20;102567.94;5012973;28;20461;-74
2021/03/29 10:26:18;;;;;;;8.50;5.30;;;;;;;18.39;50.32;102574.41;5014642;28;20842;-75
2021/03/29 10:29:06;;;;;;;6.63;5.00;;;;;;;18.17;49.22;102573.91;5014199;28;20026;-75
2021/03/29 10:31:51;;;;;;;8.38;4.72;;;;;;;18.28;47.35;102569.28;4999961;28;20033;-75
2021/03/29 10:34:39;;;;;;;6.38;4.88;;;;;;;17.54;49.25;102576.84;5013216;28;20038;-75
2021/03/29 10:37:27;;;;;;;5.93;4.60;;;;;;;17.28;49.68;102566.63;4999223;28;20026;-74
2021/03/29 10:40:14;;;;;;;8.10;4.20;;;;;;;17.53;47.86;102568.03;4999488;28;20034;-74
2021/03/29 10:43:00;;;;;;;6.25;4.18;;;;;;;17.30;48.04;102558.66;4998818;28;20459;-74
2021/03/29 10:45:45;;;;;;;7.85;4.03;;;;;;;17.60;48.53;102566.16;4999432;28;20030;-75
2021/03/29 10:48:31;;;;;;;7.00;4.15;;;;;;;17.50;47.76;102567.22;5001033;28;20030;-74
2021/03/29 10:51:19;;;;;;;6.90;4.70;;;;;;;17.97;47.26;102560.16;5017512;28;20057;-75
2021/03/29 10:54:05;;;;;;;5.93;4.20;;;;;;;18.03;47.00;102556.53;5017493;28;20021;-74
2021/03/29 10:56:51;;;;;;;5.50;3.95;;;;;;;17.93;46.12;102542.56;5017750;28;20018;-74
2021/03/29 10:59:37;;;;;;;5.65;4.10;;;;;;;18.01;45.70;102547.72;5017854;28;20033;-73
2021/03/29 11:02:23;;;;;;;5.40;3.83;;;;;;;17.03;44.80;102543.19;5017433;28;20026;-73
2021/03/29 11:05:10;;;;;;;4.32;3.50;;;;;;;17.70;44.07;102546.53;5016873;28;20130;-72
2021/03/29 11:07:56;;;;;;;5.35;3.85;;;;;;;17.54;43.48;102545.06;5002343;28;20092;-74
2021/03/29 11:10:42;;;;;;;6.35;3.85;;;;;;;17.89;43.74;102540.84;5002494;28;20044;-73
2021/03/29 11:13:27;;;;;;;5.43;3.47;;;;;;;18.17;41.45;102534.13;5001949;28;20021;-73
2021/03/29 11:16:14;;;;;;;4.97;3.92;;;;;;;18.48;41.68;102529.09;5016696;28;20033;-73
2021/03/29 11:19:00;;;;;;;4.95;3.80;;;;;;;18.37;41.78;102533.78;5002541;28;20469;-73
2021/03/29 11:21:51;;;;;;;5.07;3.50;;;;;;;17.84;39.64;102518.00;5016845;28;20037;-73
2021/03/29 11:24:37;;;;;;;4.30;3.25;;;;;;;17.92;39.64;102513.44;5003365;28;20121;-73
2021/03/29 11:27:22;;;;;;;4.05;2.80;;;;;;;18.64;39.21;102510.16;5017933;28;20030;-76
2021/03/29 11:30:10;;;;;;;4.88;3.70;;;;;;;18.19;38.93;102513.75;5017001;28;20032;-75
2021/03/29 11:32:55;;;;;;;7.18;3.65;;;;;;;18.52;38.68;102509.53;5016189;28;20022;-75
2021/03/29 11:35:42;;;;;;;9.88;4.07;;;;;;;18.83;38.59;102505.28;5001929;28;20103;-76
2021/03/29 11:38:27;;;;;;;5.43;4.05;;;;;;;18.87;39.66;102499.00;5002358;28;20087;-76
2021/03/29 11:41:14;;;;;;;8.15;3.88;;;;;;;18.24;40.61;102501.25;5017159;28;20102;-75
2021/03/29 11:44:00;;;;;;;8.32;4.40;;;;;;;18.20;42.10;102496.03;5016014;28;20096;-75
2021/03/29 11:46:46;;;;;;;6.65;4.22;;;;;;;18.49;42.47;102504.31;5016660;28;20034;-74
2021/03/29 11:49:32;;;;;;;5.88;4.38;;;;;;;18.27;42.77;102500.31;5015995;28;20034;-72
2021/03/29 11:52:18;;;;;;;6.80;4.38;;;;;;;17.96;43.25;102496.53;5016003;28;20053;-72
2021/03/29 11:55:07;;;;;;;5.75;3.92;;;;;;;18.26;42.53;102490.63;5016792;28;20053;-72
2021/03/29 11:57:56;;;;;;;4.88;4.00;;;;;;;18.50;41.49;102482.16;5003158;28;20037;-77
2021/03/29 12:03:52;;;;;;;6.43;3.83;;;;;;;18.79;40.50;102483.25;5016219;28;20026;-74
2021/03/29 12:09:43;;;;;;;6.25;3.67;;;;;;;18.95;38.37;102489.06;5016093;28;20070;-77
2021/03/29 12:12:31;;;;;;;5.28;3.78;;;;;;;18.25;38.91;102475.59;5001575;28;20048;-75
2021/03/29 12:15:21;;;;;;;6.03;3.90;;;;;;;17.63;40.04;102470.66;5015518;28;20036;-74
2021/03/29 12:18:10;;;;;;;7.20;3.30;;;;;;;17.39;40.08;102481.66;5016616;28;20029;-75
2021/03/29 12:21:03;;;;;;;7.15;3.67;;;;;;;17.71;40.14;102474.03;5001718;28;20034;-76
2021/03/29 12:23:52;;;;;;;6.43;3.60;;;;;;;17.93;38.98;102465.63;5015237;28;20022;-75
2021/03/29 12:26:38;;;;;;;6.85;3.45;;;;;;;18.20;38.37;102467.72;5001047;28;20036;-75
2021/03/29 12:29:40;;;;;;;4.10;3.00;;;;;;;17.26;36.13;102475.72;5015061;28;20406;-75
2021/03/29 12:32:26;;;;;;;6.75;2.55;;;;;;;17.38;34.93;102472.88;5015337;28;20037;-75
2021/03/29 12:35:18;;;;;;;11.40;4.45;;;;;;;18.30;34.27;102464.00;5000600;28;20049;-76
2021/03/29 12:38:04;;;;;;;5.88;3.40;;;;;;;18.17;34.38;102465.13;5015207;28;20040;-78
2021/03/29 12:40:57;;;;;;;5.90;2.95;;;;;;;17.40;35.33;102473.72;5015162;28;20029;-75
2021/03/29 12:43:53;;;;;;;3.83;2.63;;;;;;;17.23;36.35;102467.81;5015412;28;20455;-75
2021/03/29 12:46:41;;;;;;;12.73;6.40;;;;;;;17.52;35.89;102467.34;5015027;28;20067;-75
2021/03/29 12:49:28;;;;;;;5.65;2.50;;;;;;;18.03;35.46;102453.06;5014860;28;20040;-75
2021/03/29 12:52:14;;;;;;;3.55;2.70;;;;;;;18.13;35.64;102457.28;5014652;28;20085;-74
2021/03/29 12:55:00;;;;;;;7.40;2.65;;;;;;;17.48;36.17;102453.25;5000645;28;20348;-75
2021/03/29 12:57:47;;;;;;;4.32;3.20;;;;;;;17.88;35.98;102446.28;5015996;28;20026;-74
2021/03/29 13:00:33;;;;;;;5.82;2.92;;;;;;;17.38;35.78;102450.78;5015770;28;20116;-75
2021/03/29 13:03:19;;;;;;;4.32;2.80;;;;;;;17.32;35.23;102446.44;5014516;28;20485;-74
2021/03/29 13:06:25;;;;;;;8.45;2.60;;;;;;;17.60;35.98;102441.56;4999967;28;20025;-76
2021/03/29 13:09:23;;;;;;;3.42;2.35;;;;;;;17.52;35.00;102436.41;5000630;28;20030;-75
2021/03/29 13:12:09;;;;;;;11.48;5.80;;;;;;;18.09;35.79;102440.53;5014335;28;20463;-75